sensor_id;sensor_type;location;lat;lon;timestamp;temperature;humidity
44121;DHT22;29783;52.504;13.478;2024-03-29T00:01:22;9.20;71.60
44121;DHT22;29783;52.504;13.478;2024-03-29T00:03:48;9.10;71.70
44121;DHT22;29783;52.504;13.478;2024-03-29T00:06:13;9.00;72.10
44121;DHT22;29783;52.504;13.478;2024-03-29T00:08:39;9.00;72.20
44121;DHT22;29783;52.504;13.478;2024-03-29T00:11:05;9.00;72.40
44121;DHT22;29783;52.504;13.478;2024-03-29T00:13:32;9.00;72.60
44121;DHT22;29783;52.504;13.478;2024-03-29T00:15:57;9.00;72.70
44121;DHT22;29783;52.504;13.478;2024-03-29T00:18:23;9.10;72.40
44121;DHT22;29783;52.504;13.478;2024-03-29T00:20:50;9.20;71.90
44121;DHT22;29783;52.504;13.478;2024-03-29T00:23:16;9.30;71.50
44121;DHT22;29783;52.504;13.478;2024-03-29T00:25:41;9.30;71.40
44121;DHT22;29783;52.504;13.478;2024-03-29T00:28:07;9.30;71.00
44121;DHT22;29783;52.504;13.478;2024-03-29T00:30:33;9.30;71.30
44121;DHT22;29783;52.504;13.478;2024-03-29T00:33:00;9.30;70.70
44121;DHT22;29783;52.504;13.478;2024-03-29T00:35:27;9.40;70.60
44121;DHT22;29783;52.504;13.478;2024-03-29T00:37:53;9.40;69.90
44121;DHT22;29783;52.504;13.478;2024-03-29T00:40:18;9.50;69.90
44121;DHT22;29783;52.504;13.478;2024-03-29T00:42:44;9.50;69.50
44121;DHT22;29783;52.504;13.478;2024-03-29T00:45:09;9.50;69.90
44121;DHT22;29783;52.504;13.478;2024-03-29T00:47:35;9.50;70.60
44121;DHT22;29783;52.504;13.478;2024-03-29T00:50:02;9.50;71.30
44121;DHT22;29783;52.504;13.478;2024-03-29T00:52:28;9.30;72.40
44121;DHT22;29783;52.504;13.478;2024-03-29T00:54:54;9.20;74.40
44121;DHT22;29783;52.504;13.478;2024-03-29T00:57:19;9.00;75.60
44121;DHT22;29783;52.504;13.478;2024-03-29T00:59:46;8.70;76.90
44121;DHT22;29783;52.504;13.478;2024-03-29T01:02:12;8.50;78.00
44121;DHT22;29783;52.504;13.478;2024-03-29T01:04:37;8.40;78.60
44121;DHT22;29783;52.504;13.478;2024-03-29T01:07:05;8.20;79.40
44121;DHT22;29783;52.504;13.478;2024-03-29T01:09:31;8.10;80.10
44121;DHT22;29783;52.504;13.478;2024-03-29T01:11:57;8.00;80.50
44121;DHT22;29783;52.504;13.478;2024-03-29T01:14:22;7.90;81.40
44121;DHT22;29783;52.504;13.478;2024-03-29T01:16:48;7.80;82.10
44121;DHT22;29783;52.504;13.478;2024-03-29T01:19:13;7.80;82.50
44121;DHT22;29783;52.504;13.478;2024-03-29T01:21:39;7.60;83.10
44121;DHT22;29783;52.504;13.478;2024-03-29T01:24:04;7.50;83.90
44121;DHT22;29783;52.504;13.478;2024-03-29T01:26:30;7.40;84.00
44121;DHT22;29783;52.504;13.478;2024-03-29T01:28:56;7.30;84.50
44121;DHT22;29783;52.504;13.478;2024-03-29T01:31:23;7.20;85.00
44121;DHT22;29783;52.504;13.478;2024-03-29T01:33:49;7.20;85.40
44121;DHT22;29783;52.504;13.478;2024-03-29T01:36:15;7.20;85.70
44121;DHT22;29783;52.504;13.478;2024-03-29T01:38:40;7.10;85.90
44121;DHT22;29783;52.504;13.478;2024-03-29T01:41:06;7.10;86.30
44121;DHT22;29783;52.504;13.478;2024-03-29T01:43:32;7.00;86.40
44121;DHT22;29783;52.504;13.478;2024-03-29T01:46:00;7.00;86.50
44121;DHT22;29783;52.504;13.478;2024-03-29T01:48:26;6.90;86.70
44121;DHT22;29783;52.504;13.478;2024-03-29T01:50:55;6.80;87.00
44121;DHT22;29783;52.504;13.478;2024-03-29T01:53:21;6.80;87.50
44121;DHT22;29783;52.504;13.478;2024-03-29T01:55:47;6.70;87.60
44121;DHT22;29783;52.504;13.478;2024-03-29T01:58:14;6.70;87.60
44121;DHT22;29783;52.504;13.478;2024-03-29T02:00:51;6.70;87.70
44121;DHT22;29783;52.504;13.478;2024-03-29T02:03:18;6.70;87.70
44121;DHT22;29783;52.504;13.478;2024-03-29T02:05:44;6.60;87.60
44121;DHT22;29783;52.504;13.478;2024-03-29T02:08:10;6.50;87.90
44121;DHT22;29783;52.504;13.478;2024-03-29T02:10:37;6.50;87.90
44121;DHT22;29783;52.504;13.478;2024-03-29T02:13:04;6.60;87.90
44121;DHT22;29783;52.504;13.478;2024-03-29T02:15:31;6.60;87.60
44121;DHT22;29783;52.504;13.478;2024-03-29T02:17:57;6.60;87.10
44121;DHT22;29783;52.504;13.478;2024-03-29T02:20:24;6.50;87.40
44121;DHT22;29783;52.504;13.478;2024-03-29T02:23:17;6.40;87.50
44121;DHT22;29783;52.504;13.478;2024-03-29T02:25:44;6.30;87.80
44121;DHT22;29783;52.504;13.478;2024-03-29T02:28:09;6.30;88.00
44121;DHT22;29783;52.504;13.478;2024-03-29T02:30:36;6.30;87.90
44121;DHT22;29783;52.504;13.478;2024-03-29T02:33:02;6.30;87.30
44121;DHT22;29783;52.504;13.478;2024-03-29T02:35:29;6.30;87.50
44121;DHT22;29783;52.504;13.478;2024-03-29T02:37:54;6.30;87.00
44121;DHT22;29783;52.504;13.478;2024-03-29T02:40:20;6.30;87.00
44121;DHT22;29783;52.504;13.478;2024-03-29T02:42:48;6.30;86.70
44121;DHT22;29783;52.504;13.478;2024-03-29T02:45:16;6.30;86.70
44121;DHT22;29783;52.504;13.478;2024-03-29T02:47:41;6.30;86.30
44121;DHT22;29783;52.504;13.478;2024-03-29T02:50:09;6.30;86.10
44121;DHT22;29783;52.504;13.478;2024-03-29T02:52:35;6.30;86.40
44121;DHT22;29783;52.504;13.478;2024-03-29T02:55:01;6.20;86.20
44121;DHT22;29783;52.504;13.478;2024-03-29T02:57:27;6.20;86.20
44121;DHT22;29783;52.504;13.478;2024-03-29T02:59:52;6.20;86.00
44121;DHT22;29783;52.504;13.478;2024-03-29T03:02:18;6.20;86.00
44121;DHT22;29783;52.504;13.478;2024-03-29T03:04:44;6.20;85.90
44121;DHT22;29783;52.504;13.478;2024-03-29T03:07:09;6.20;86.20
44121;DHT22;29783;52.504;13.478;2024-03-29T03:09:53;6.20;85.70
44121;DHT22;29783;52.504;13.478;2024-03-29T03:12:37;6.30;85.20
44121;DHT22;29783;52.504;13.478;2024-03-29T03:15:03;6.20;85.20
44121;DHT22;29783;52.504;13.478;2024-03-29T03:17:31;6.20;85.20
44121;DHT22;29783;52.504;13.478;2024-03-29T03:19:56;6.10;85.30
44121;DHT22;29783;52.504;13.478;2024-03-29T03:22:24;6.10;85.40
44121;DHT22;29783;52.504;13.478;2024-03-29T03:24:50;6.10;85.60
44121;DHT22;29783;52.504;13.478;2024-03-29T03:27:15;6.00;85.40
44121;DHT22;29783;52.504;13.478;2024-03-29T03:29:41;6.00;85.40
44121;DHT22;29783;52.504;13.478;2024-03-29T03:32:07;6.10;85.30
44121;DHT22;29783;52.504;13.478;2024-03-29T03:34:33;6.00;85.30
44121;DHT22;29783;52.504;13.478;2024-03-29T03:36:59;6.00;85.10
44121;DHT22;29783;52.504;13.478;2024-03-29T03:39:25;6.00;85.10
44121;DHT22;29783;52.504;13.478;2024-03-29T03:41:50;5.80;85.30
44121;DHT22;29783;52.504;13.478;2024-03-29T03:44:16;5.80;85.40
44121;DHT22;29783;52.504;13.478;2024-03-29T03:46:42;5.90;85.20
44121;DHT22;29783;52.504;13.478;2024-03-29T03:49:07;5.80;85.00
44121;DHT22;29783;52.504;13.478;2024-03-29T03:51:33;5.80;85.10
44121;DHT22;29783;52.504;13.478;2024-03-29T03:53:59;5.70;85.20
44121;DHT22;29783;52.504;13.478;2024-03-29T03:56:25;5.70;85.20
44121;DHT22;29783;52.504;13.478;2024-03-29T03:58:50;5.70;85.10
44121;DHT22;29783;52.504;13.478;2024-03-29T04:01:16;5.60;85.20
44121;DHT22;29783;52.504;13.478;2024-03-29T04:03:44;5.70;85.20
44121;DHT22;29783;52.504;13.478;2024-03-29T04:06:10;5.60;85.10
44121;DHT22;29783;52.504;13.478;2024-03-29T04:08:35;5.50;85.60
44121;DHT22;29783;52.504;13.478;2024-03-29T04:11:04;5.60;85.30
44121;DHT22;29783;52.504;13.478;2024-03-29T04:13:30;5.50;85.60
44121;DHT22;29783;52.504;13.478;2024-03-29T04:16:05;5.50;85.40
44121;DHT22;29783;52.504;13.478;2024-03-29T04:18:32;5.50;85.60
44121;DHT22;29783;52.504;13.478;2024-03-29T04:20:58;5.50;85.70
44121;DHT22;29783;52.504;13.478;2024-03-29T04:23:25;5.50;85.60
44121;DHT22;29783;52.504;13.478;2024-03-29T04:25:55;5.50;85.40
44121;DHT22;29783;52.504;13.478;2024-03-29T04:28:21;5.50;85.90
44121;DHT22;29783;52.504;13.478;2024-03-29T04:30:56;5.50;85.90
44121;DHT22;29783;52.504;13.478;2024-03-29T04:33:22;5.50;86.10
44121;DHT22;29783;52.504;13.478;2024-03-29T04:36:04;5.50;86.10
44121;DHT22;29783;52.504;13.478;2024-03-29T04:38:30;5.40;86.20
44121;DHT22;29783;52.504;13.478;2024-03-29T04:40:58;5.30;86.20
44121;DHT22;29783;52.504;13.478;2024-03-29T04:43:25;5.30;86.60
44121;DHT22;29783;52.504;13.478;2024-03-29T04:46:13;5.20;87.10
44121;DHT22;29783;52.504;13.478;2024-03-29T04:48:40;5.20;87.20
44121;DHT22;29783;52.504;13.478;2024-03-29T04:51:09;5.20;87.40
44121;DHT22;29783;52.504;13.478;2024-03-29T04:53:36;5.30;87.20
44121;DHT22;29783;52.504;13.478;2024-03-29T04:56:02;5.20;87.00
44121;DHT22;29783;52.504;13.478;2024-03-29T04:58:28;5.20;87.00
44121;DHT22;29783;52.504;13.478;2024-03-29T05:00:54;5.20;87.10
44121;DHT22;29783;52.504;13.478;2024-03-29T05:03:22;5.30;86.90
44121;DHT22;29783;52.504;13.478;2024-03-29T05:05:52;5.30;86.10
44121;DHT22;29783;52.504;13.478;2024-03-29T05:08:19;5.40;85.80
44121;DHT22;29783;52.504;13.478;2024-03-29T05:10:46;5.40;85.60
44121;DHT22;29783;52.504;13.478;2024-03-29T05:13:12;5.50;85.30
44121;DHT22;29783;52.504;13.478;2024-03-29T05:15:38;5.60;84.90
44121;DHT22;29783;52.504;13.478;2024-03-29T05:18:04;5.60;84.60
44121;DHT22;29783;52.504;13.478;2024-03-29T05:20:31;5.70;84.30
44121;DHT22;29783;52.504;13.478;2024-03-29T05:22:59;5.70;84.00
44121;DHT22;29783;52.504;13.478;2024-03-29T05:25:27;5.80;83.80
44121;DHT22;29783;52.504;13.478;2024-03-29T05:27:53;5.80;83.80
44121;DHT22;29783;52.504;13.478;2024-03-29T05:30:19;5.80;83.50
44121;DHT22;29783;52.504;13.478;2024-03-29T05:32:45;5.80;83.40
44121;DHT22;29783;52.504;13.478;2024-03-29T05:35:11;5.90;83.10
44121;DHT22;29783;52.504;13.478;2024-03-29T05:37:37;6.00;82.90
44121;DHT22;29783;52.504;13.478;2024-03-29T05:40:03;6.00;82.70
44121;DHT22;29783;52.504;13.478;2024-03-29T05:42:33;6.10;82.30
44121;DHT22;29783;52.504;13.478;2024-03-29T05:45:01;6.10;82.00
44121;DHT22;29783;52.504;13.478;2024-03-29T05:47:26;6.20;82.00
44121;DHT22;29783;52.504;13.478;2024-03-29T05:49:53;6.30;81.80
44121;DHT22;29783;52.504;13.478;2024-03-29T05:52:19;6.30;81.20
44121;DHT22;29783;52.504;13.478;2024-03-29T05:54:46;6.30;81.10
44121;DHT22;29783;52.504;13.478;2024-03-29T05:57:12;6.30;80.70
44121;DHT22;29783;52.504;13.478;2024-03-29T05:59:38;6.50;80.50
44121;DHT22;29783;52.504;13.478;2024-03-29T06:02:04;6.60;80.30
44121;DHT22;29783;52.504;13.478;2024-03-29T06:04:30;6.60;80.00
44121;DHT22;29783;52.504;13.478;2024-03-29T06:07:02;6.70;79.60
44121;DHT22;29783;52.504;13.478;2024-03-29T06:09:28;6.70;79.30
44121;DHT22;29783;52.504;13.478;2024-03-29T06:11:57;6.80;79.10
44121;DHT22;29783;52.504;13.478;2024-03-29T06:14:23;6.80;78.80
44121;DHT22;29783;52.504;13.478;2024-03-29T06:40:17;7.60;76.40
44121;DHT22;29783;52.504;13.478;2024-03-29T06:42:42;7.50;76.00
44121;DHT22;29783;52.504;13.478;2024-03-29T06:45:08;7.60;76.10
44121;DHT22;29783;52.504;13.478;2024-03-29T06:47:35;7.70;76.20
44121;DHT22;29783;52.504;13.478;2024-03-29T06:50:02;7.80;75.40
44121;DHT22;29783;52.504;13.478;2024-03-29T06:52:28;8.00;75.30
44121;DHT22;29783;52.504;13.478;2024-03-29T06:54:54;8.10;74.90
44121;DHT22;29783;52.504;13.478;2024-03-29T06:57:20;8.20;74.50
44121;DHT22;29783;52.504;13.478;2024-03-29T06:59:51;8.40;73.50
44121;DHT22;29783;52.504;13.478;2024-03-29T07:02:16;8.50;73.40
44121;DHT22;29783;52.504;13.478;2024-03-29T07:04:42;8.70;73.00
44121;DHT22;29783;52.504;13.478;2024-03-29T07:07:07;8.80;72.30
44121;DHT22;29783;52.504;13.478;2024-03-29T07:09:33;8.80;72.20
44121;DHT22;29783;52.504;13.478;2024-03-29T07:11:59;9.00;71.60
44121;DHT22;29783;52.504;13.478;2024-03-29T07:14:25;9.00;71.00
44121;DHT22;29783;52.504;13.478;2024-03-29T07:16:52;9.10;71.30
44121;DHT22;29783;52.504;13.478;2024-03-29T07:19:18;9.20;70.20
44121;DHT22;29783;52.504;13.478;2024-03-29T07:21:48;9.20;70.40
44121;DHT22;29783;52.504;13.478;2024-03-29T07:24:16;9.40;69.80
44121;DHT22;29783;52.504;13.478;2024-03-29T07:26:41;9.50;68.80
44121;DHT22;29783;52.504;13.478;2024-03-29T07:29:07;9.60;68.30
44121;DHT22;29783;52.504;13.478;2024-03-29T07:31:33;9.70;67.60
44121;DHT22;29783;52.504;13.478;2024-03-29T07:33:59;9.80;67.50
44121;DHT22;29783;52.504;13.478;2024-03-29T07:36:25;9.70;67.30
44121;DHT22;29783;52.504;13.478;2024-03-29T07:38:57;9.70;67.60
44121;DHT22;29783;52.504;13.478;2024-03-29T07:41:22;9.80;67.10
44121;DHT22;29783;52.504;13.478;2024-03-29T07:43:55;9.80;66.90
44121;DHT22;29783;52.504;13.478;2024-03-29T07:46:36;9.80;67.20
44121;DHT22;29783;52.504;13.478;2024-03-29T07:49:03;9.90;67.00
44121;DHT22;29783;52.504;13.478;2024-03-29T07:51:29;10.00;67.20
44121;DHT22;29783;52.504;13.478;2024-03-29T07:53:56;10.20;66.70
44121;DHT22;29783;52.504;13.478;2024-03-29T07:56:22;10.10;66.20
44121;DHT22;29783;52.504;13.478;2024-03-29T07:58:54;10.20;65.50
44121;DHT22;29783;52.504;13.478;2024-03-29T08:01:23;10.30;64.80
44121;DHT22;29783;52.504;13.478;2024-03-29T08:03:52;10.20;65.40
44121;DHT22;29783;52.504;13.478;2024-03-29T08:06:21;10.30;64.20
44121;DHT22;29783;52.504;13.478;2024-03-29T08:08:49;10.40;64.10
44121;DHT22;29783;52.504;13.478;2024-03-29T08:11:15;10.40;64.10
44121;DHT22;29783;52.504;13.478;2024-03-29T08:13:41;10.50;64.00
44121;DHT22;29783;52.504;13.478;2024-03-29T08:16:07;10.70;63.40
44121;DHT22;29783;52.504;13.478;2024-03-29T08:18:33;10.80;63.20
44121;DHT22;29783;52.504;13.478;2024-03-29T08:20:59;10.80;63.10
44121;DHT22;29783;52.504;13.478;2024-03-29T08:23:26;10.90;62.70
44121;DHT22;29783;52.504;13.478;2024-03-29T08:25:52;10.80;63.70
44121;DHT22;29783;52.504;13.478;2024-03-29T08:28:21;10.80;64.30
44121;DHT22;29783;52.504;13.478;2024-03-29T08:31:00;10.90;63.90
44121;DHT22;29783;52.504;13.478;2024-03-29T08:33:26;11.00;64.20
44121;DHT22;29783;52.504;13.478;2024-03-29T08:35:53;11.10;64.40
44121;DHT22;29783;52.504;13.478;2024-03-29T08:38:18;11.20;63.40
44121;DHT22;29783;52.504;13.478;2024-03-29T08:40:44;11.20;64.60
44121;DHT22;29783;52.504;13.478;2024-03-29T08:43:14;11.30;64.90
44121;DHT22;29783;52.504;13.478;2024-03-29T08:45:42;11.30;65.50
44121;DHT22;29783;52.504;13.478;2024-03-29T08:48:08;11.30;66.70
44121;DHT22;29783;52.504;13.478;2024-03-29T08:50:34;11.40;65.40
44121;DHT22;29783;52.504;13.478;2024-03-29T08:53:01;11.60;65.80
44121;DHT22;29783;52.504;13.478;2024-03-29T08:55:27;11.80;64.20
44121;DHT22;29783;52.504;13.478;2024-03-29T08:57:53;11.70;64.00
44121;DHT22;29783;52.504;13.478;2024-03-29T09:00:19;11.80;63.90
44121;DHT22;29783;52.504;13.478;2024-03-29T09:02:46;11.80;64.20
44121;DHT22;29783;52.504;13.478;2024-03-29T09:05:12;11.90;63.30
44121;DHT22;29783;52.504;13.478;2024-03-29T09:07:37;12.00;63.10
44121;DHT22;29783;52.504;13.478;2024-03-29T09:10:04;12.20;63.10
44121;DHT22;29783;52.504;13.478;2024-03-29T09:12:30;12.40;61.50
44121;DHT22;29783;52.504;13.478;2024-03-29T09:14:55;12.50;62.40
44121;DHT22;29783;52.504;13.478;2024-03-29T09:17:22;12.50;61.10
44121;DHT22;29783;52.504;13.478;2024-03-29T09:19:50;12.50;60.90
44121;DHT22;29783;52.504;13.478;2024-03-29T09:22:17;12.60;60.90
44121;DHT22;29783;52.504;13.478;2024-03-29T09:24:43;12.70;59.80
44121;DHT22;29783;52.504;13.478;2024-03-29T09:27:09;12.80;59.80
44121;DHT22;29783;52.504;13.478;2024-03-29T09:29:34;12.80;59.40
44121;DHT22;29783;52.504;13.478;2024-03-29T09:32:00;12.90;59.00
44121;DHT22;29783;52.504;13.478;2024-03-29T09:34:27;12.80;58.90
44121;DHT22;29783;52.504;13.478;2024-03-29T09:36:53;13.00;58.70
44121;DHT22;29783;52.504;13.478;2024-03-29T09:39:19;13.20;57.90
44121;DHT22;29783;52.504;13.478;2024-03-29T09:41:45;13.30;57.60
44121;DHT22;29783;52.504;13.478;2024-03-29T09:44:11;13.10;57.90
44121;DHT22;29783;52.504;13.478;2024-03-29T09:46:37;13.30;57.00
44121;DHT22;29783;52.504;13.478;2024-03-29T09:49:06;13.30;56.30
44121;DHT22;29783;52.504;13.478;2024-03-29T09:51:32;13.10;56.20
44121;DHT22;29783;52.504;13.478;2024-03-29T09:54:00;13.10;56.20
44121;DHT22;29783;52.504;13.478;2024-03-29T09:56:27;13.30;55.90
44121;DHT22;29783;52.504;13.478;2024-03-29T09:58:53;13.40;54.80
44121;DHT22;29783;52.504;13.478;2024-03-29T10:01:19;13.30;55.20
44121;DHT22;29783;52.504;13.478;2024-03-29T10:03:51;13.40;55.50
44121;DHT22;29783;52.504;13.478;2024-03-29T10:06:19;13.20;55.40
44121;DHT22;29783;52.504;13.478;2024-03-29T10:08:47;13.20;56.10
44121;DHT22;29783;52.504;13.478;2024-03-29T10:11:14;13.20;56.60
44121;DHT22;29783;52.504;13.478;2024-03-29T10:13:45;13.30;56.40
44121;DHT22;29783;52.504;13.478;2024-03-29T10:16:11;13.40;56.00
44121;DHT22;29783;52.504;13.478;2024-03-29T10:34:40;12.50;60.10
44121;DHT22;29783;52.504;13.478;2024-03-29T10:47:51;12.40;62.80
44121;DHT22;29783;52.504;13.478;2024-03-29T10:50:19;12.30;63.10
44121;DHT22;29783;52.504;13.478;2024-03-29T10:52:47;12.30;64.00
44121;DHT22;29783;52.504;13.478;2024-03-29T10:55:13;12.50;63.90
44121;DHT22;29783;52.504;13.478;2024-03-29T10:57:41;12.60;64.70
44121;DHT22;29783;52.504;13.478;2024-03-29T11:00:15;12.70;64.20
44121;DHT22;29783;52.504;13.478;2024-03-29T11:05:33;12.80;64.30
44121;DHT22;29783;52.504;13.478;2024-03-29T11:08:01;12.70;65.30
44121;DHT22;29783;52.504;13.478;2024-03-29T11:10:42;13.00;66.10
44121;DHT22;29783;52.504;13.478;2024-03-29T11:13:37;13.40;64.80
44121;DHT22;29783;52.504;13.478;2024-03-29T11:16:05;13.90;62.50
44121;DHT22;29783;52.504;13.478;2024-03-29T11:18:32;13.80;61.60
44121;DHT22;29783;52.504;13.478;2024-03-29T11:21:01;13.60;62.30
44121;DHT22;29783;52.504;13.478;2024-03-29T11:23:28;13.90;61.60
44121;DHT22;29783;52.504;13.478;2024-03-29T11:25:57;14.20;60.90
44121;DHT22;29783;52.504;13.478;2024-03-29T11:28:29;14.20;60.60
44121;DHT22;29783;52.504;13.478;2024-03-29T11:34:00;14.30;60.40
44121;DHT22;29783;52.504;13.478;2024-03-29T11:36:21;14.50;60.30
44121;DHT22;29783;52.504;13.478;2024-03-29T11:38:52;14.20;59.90
44121;DHT22;29783;52.504;13.478;2024-03-29T11:41:21;13.90;60.20
44121;DHT22;29783;52.504;13.478;2024-03-29T11:43:50;14.10;59.70
44121;DHT22;29783;52.504;13.478;2024-03-29T11:46:17;13.70;60.30
44121;DHT22;29783;52.504;13.478;2024-03-29T11:48:44;13.80;60.20
44121;DHT22;29783;52.504;13.478;2024-03-29T11:51:16;13.60;60.60
44121;DHT22;29783;52.504;13.478;2024-03-29T11:53:42;13.50;60.20
44121;DHT22;29783;52.504;13.478;2024-03-29T11:56:09;13.40;60.20
44121;DHT22;29783;52.504;13.478;2024-03-29T11:58:37;13.50;61.10
44121;DHT22;29783;52.504;13.478;2024-03-29T12:01:03;13.50;61.80
44121;DHT22;29783;52.504;13.478;2024-03-29T12:03:30;13.50;61.80
44121;DHT22;29783;52.504;13.478;2024-03-29T12:05:57;13.50;62.10
44121;DHT22;29783;52.504;13.478;2024-03-29T12:08:32;13.60;62.90
44121;DHT22;29783;52.504;13.478;2024-03-29T12:11:02;13.60;62.50
44121;DHT22;29783;52.504;13.478;2024-03-29T12:13:28;13.60;63.50
44121;DHT22;29783;52.504;13.478;2024-03-29T12:15:56;13.60;64.10
44121;DHT22;29783;52.504;13.478;2024-03-29T12:18:23;13.60;64.00
44121;DHT22;29783;52.504;13.478;2024-03-29T12:20:51;13.50;64.80
44121;DHT22;29783;52.504;13.478;2024-03-29T12:23:18;13.70;64.20
44121;DHT22;29783;52.504;13.478;2024-03-29T12:25:45;13.70;64.60
44121;DHT22;29783;52.504;13.478;2024-03-29T12:28:12;13.90;63.30
44121;DHT22;29783;52.504;13.478;2024-03-29T12:30:41;14.00;63.10
44121;DHT22;29783;52.504;13.478;2024-03-29T12:33:11;14.10;61.40
44121;DHT22;29783;52.504;13.478;2024-03-29T12:35:37;14.20;61.50
44121;DHT22;29783;52.504;13.478;2024-03-29T12:38:04;14.30;60.40
44121;DHT22;29783;52.504;13.478;2024-03-29T12:40:32;14.60;59.50
44121;DHT22;29783;52.504;13.478;2024-03-29T12:43:06;14.90;58.50
44121;DHT22;29783;52.504;13.478;2024-03-29T12:45:34;15.00;56.90
44121;DHT22;29783;52.504;13.478;2024-03-29T12:48:00;15.40;56.20
44121;DHT22;29783;52.504;13.478;2024-03-29T12:50:31;16.00;54.60
44121;DHT22;29783;52.504;13.478;2024-03-29T12:52:58;17.10;51.10
44121;DHT22;29783;52.504;13.478;2024-03-29T12:55:26;17.20;49.40
44121;DHT22;29783;52.504;13.478;2024-03-29T12:57:57;16.90;50.60
44121;DHT22;29783;52.504;13.478;2024-03-29T13:00:23;17.50;48.00
44121;DHT22;29783;52.504;13.478;2024-03-29T13:02:49;17.40;48.50
44121;DHT22;29783;52.504;13.478;2024-03-29T13:05:15;17.00;48.70
44121;DHT22;29783;52.504;13.478;2024-03-29T13:07:41;16.80;49.10
44121;DHT22;29783;52.504;13.478;2024-03-29T13:10:08;16.60;49.20
44121;DHT22;29783;52.504;13.478;2024-03-29T13:12:54;16.70;48.90
44121;DHT22;29783;52.504;13.478;2024-03-29T13:15:21;16.50;49.10
44121;DHT22;29783;52.504;13.478;2024-03-29T13:17:49;16.40;48.60
44121;DHT22;29783;52.504;13.478;2024-03-29T13:20:16;16.30;48.60
44121;DHT22;29783;52.504;13.478;2024-03-29T13:22:42;16.10;48.60
44121;DHT22;29783;52.504;13.478;2024-03-29T13:25:10;15.90;48.90
44121;DHT22;29783;52.504;13.478;2024-03-29T13:27:40;15.70;48.50
44121;DHT22;29783;52.504;13.478;2024-03-29T13:30:07;15.70;48.30
44121;DHT22;29783;52.504;13.478;2024-03-29T13:32:34;15.70;48.00
44121;DHT22;29783;52.504;13.478;2024-03-29T13:35:00;15.60;48.30
44121;DHT22;29783;52.504;13.478;2024-03-29T13:37:26;15.70;47.70
44121;DHT22;29783;52.504;13.478;2024-03-29T13:39:56;15.70;47.70
44121;DHT22;29783;52.504;13.478;2024-03-29T13:42:23;15.80;46.70
44121;DHT22;29783;52.504;13.478;2024-03-29T13:44:52;15.90;46.40
44121;DHT22;29783;52.504;13.478;2024-03-29T13:47:20;16.20;45.50
44121;DHT22;29783;52.504;13.478;2024-03-29T13:49:47;16.80;44.80
44121;DHT22;29783;52.504;13.478;2024-03-29T13:52:13;17.40;43.60
44121;DHT22;29783;52.504;13.478;2024-03-29T13:54:43;17.40;42.70
44121;DHT22;29783;52.504;13.478;2024-03-29T13:57:09;17.10;43.10
44121;DHT22;29783;52.504;13.478;2024-03-29T13:59:35;17.10;43.50
44121;DHT22;29783;52.504;13.478;2024-03-29T14:02:01;17.30;42.90
44121;DHT22;29783;52.504;13.478;2024-03-29T14:04:27;17.10;43.20
44121;DHT22;29783;52.504;13.478;2024-03-29T14:06:53;17.20;42.80
44121;DHT22;29783;52.504;13.478;2024-03-29T14:09:18;16.90;43.00
44121;DHT22;29783;52.504;13.478;2024-03-29T14:11:44;17.30;42.80
44121;DHT22;29783;52.504;13.478;2024-03-29T14:14:11;18.80;40.90
44121;DHT22;29783;52.504;13.478;2024-03-29T14:16:38;19.40;39.40
44121;DHT22;29783;52.504;13.478;2024-03-29T14:19:03;19.50;38.80
44121;DHT22;29783;52.504;13.478;2024-03-29T14:21:29;18.90;40.30
44121;DHT22;29783;52.504;13.478;2024-03-29T14:23:57;19.40;39.40
44121;DHT22;29783;52.504;13.478;2024-03-29T14:26:23;19.10;40.10
44121;DHT22;29783;52.504;13.478;2024-03-29T14:28:48;19.00;40.50
44121;DHT22;29783;52.504;13.478;2024-03-29T14:31:14;19.10;40.50
44121;DHT22;29783;52.504;13.478;2024-03-29T14:33:39;19.10;40.30
44121;DHT22;29783;52.504;13.478;2024-03-29T14:36:06;19.30;40.00
44121;DHT22;29783;52.504;13.478;2024-03-29T14:38:32;18.20;42.30
44121;DHT22;29783;52.504;13.478;2024-03-29T14:40:57;17.80;43.50
44121;DHT22;29783;52.504;13.478;2024-03-29T14:43:23;18.60;42.90
44121;DHT22;29783;52.504;13.478;2024-03-29T14:45:49;20.40;39.30
44121;DHT22;29783;52.504;13.478;2024-03-29T14:48:18;21.40;37.20
44121;DHT22;29783;52.504;13.478;2024-03-29T14:50:45;21.70;36.80
44121;DHT22;29783;52.504;13.478;2024-03-29T14:53:12;20.70;38.10
44121;DHT22;29783;52.504;13.478;2024-03-29T14:55:38;19.70;40.10
44121;DHT22;29783;52.504;13.478;2024-03-29T14:58:06;19.50;40.90
44121;DHT22;29783;52.504;13.478;2024-03-29T15:00:34;19.30;41.20
44121;DHT22;29783;52.504;13.478;2024-03-29T15:02:59;19.30;41.50
44121;DHT22;29783;52.504;13.478;2024-03-29T15:05:25;18.90;42.40
44121;DHT22;29783;52.504;13.478;2024-03-29T15:07:52;18.80;42.60
44121;DHT22;29783;52.504;13.478;2024-03-29T15:10:18;18.50;43.30
44121;DHT22;29783;52.504;13.478;2024-03-29T15:12:45;18.50;43.80
44121;DHT22;29783;52.504;13.478;2024-03-29T15:15:14;18.50;43.90
44121;DHT22;29783;52.504;13.478;2024-03-29T15:17:40;18.70;44.10
44121;DHT22;29783;52.504;13.478;2024-03-29T15:20:08;18.60;44.00
44121;DHT22;29783;52.504;13.478;2024-03-29T15:22:37;18.00;45.30
44121;DHT22;29783;52.504;13.478;2024-03-29T15:25:04;17.70;46.30
44121;DHT22;29783;52.504;13.478;2024-03-29T15:27:30;17.70;46.50
44121;DHT22;29783;52.504;13.478;2024-03-29T15:30:15;17.90;46.50
44121;DHT22;29783;52.504;13.478;2024-03-29T15:32:40;17.70;47.20
44121;DHT22;29783;52.504;13.478;2024-03-29T15:35:07;17.70;47.60
44121;DHT22;29783;52.504;13.478;2024-03-29T15:37:33;17.60;47.80
44121;DHT22;29783;52.504;13.478;2024-03-29T15:39:59;17.20;49.20
44121;DHT22;29783;52.504;13.478;2024-03-29T15:42:25;17.00;49.90
44121;DHT22;29783;52.504;13.478;2024-03-29T15:44:50;16.70;50.50
44121;DHT22;29783;52.504;13.478;2024-03-29T15:47:18;16.70;50.90
44121;DHT22;29783;52.504;13.478;2024-03-29T15:49:44;16.50;51.40
44121;DHT22;29783;52.504;13.478;2024-03-29T15:52:10;16.50;51.70
44121;DHT22;29783;52.504;13.478;2024-03-29T15:54:35;16.20;52.90
44121;DHT22;29783;52.504;13.478;2024-03-29T15:57:01;16.10;53.20
44121;DHT22;29783;52.504;13.478;2024-03-29T15:59:29;16.10;53.80
44121;DHT22;29783;52.504;13.478;2024-03-29T16:01:55;15.90;54.30
44121;DHT22;29783;52.504;13.478;2024-03-29T16:04:21;15.80;54.70
44121;DHT22;29783;52.504;13.478;2024-03-29T16:06:47;15.70;55.60
44121;DHT22;29783;52.504;13.478;2024-03-29T16:09:19;15.60;56.00
44121;DHT22;29783;52.504;13.478;2024-03-29T16:11:44;15.60;56.40
44121;DHT22;29783;52.504;13.478;2024-03-29T16:14:10;15.60;56.70
44121;DHT22;29783;52.504;13.478;2024-03-29T16:16:36;15.60;56.80
44121;DHT22;29783;52.504;13.478;2024-03-29T16:19:03;15.40;57.50